sensor_id;sensor_type;location;lat;lon;timestamp;temperature;humidity
26164;DHT22;13914;48.178;11.716;2023-06-14T00:00:51;15.10;5.80
26164;DHT22;13914;48.178;11.716;2023-06-14T00:03:18;15.10;5.90
26164;DHT22;13914;48.178;11.716;2023-06-14T00:05:48;15.00;5.90
26164;DHT22;13914;48.178;11.716;2023-06-14T00:08:14;15.00;6.10
26164;DHT22;13914;48.178;11.716;2023-06-14T00:10:40;14.90;6.10
26164;DHT22;13914;48.178;11.716;2023-06-14T00:13:08;14.90;6.10
26164;DHT22;13914;48.178;11.716;2023-06-14T00:15:34;14.90;6.00
26164;DHT22;13914;48.178;11.716;2023-06-14T00:18:01;14.80;6.20
26164;DHT22;13914;48.178;11.716;2023-06-14T00:20:28;14.80;6.20
26164;DHT22;13914;48.178;11.716;2023-06-14T00:22:56;14.70;6.20
26164;DHT22;13914;48.178;11.716;2023-06-14T00:25:23;14.70;6.20
26164;DHT22;13914;48.178;11.716;2023-06-14T00:27:51;14.70;6.20
26164;DHT22;13914;48.178;11.716;2023-06-14T00:30:17;14.60;6.30
26164;DHT22;13914;48.178;11.716;2023-06-14T00:32:44;14.60;6.30
26164;DHT22;13914;48.178;11.716;2023-06-14T00:35:11;14.60;6.30
26164;DHT22;13914;48.178;11.716;2023-06-14T00:37:37;14.40;6.30
26164;DHT22;13914;48.178;11.716;2023-06-14T00:40:03;14.50;6.40
26164;DHT22;13914;48.178;11.716;2023-06-14T00:42:30;14.40;6.40
26164;DHT22;13914;48.178;11.716;2023-06-14T00:44:57;14.40;6.20
26164;DHT22;13914;48.178;11.716;2023-06-14T00:47:23;14.40;6.50
26164;DHT22;13914;48.178;11.716;2023-06-14T00:49:53;14.30;6.40
26164;DHT22;13914;48.178;11.716;2023-06-14T00:52:19;14.30;6.30
26164;DHT22;13914;48.178;11.716;2023-06-14T00:54:45;14.30;7.00
26164;DHT22;13914;48.178;11.716;2023-06-14T00:57:12;14.20;6.40
26164;DHT22;13914;48.178;11.716;2023-06-14T00:59:44;14.20;6.40
26164;DHT22;13914;48.178;11.716;2023-06-14T01:02:11;14.10;6.30
26164;DHT22;13914;48.178;11.716;2023-06-14T01:04:38;14.10;6.40
26164;DHT22;13914;48.178;11.716;2023-06-14T01:07:35;14.10;6.70
26164;DHT22;13914;48.178;11.716;2023-06-14T01:13:15;14.00;6.80
26164;DHT22;13914;48.178;11.716;2023-06-14T01:15:50;13.90;6.80
26164;DHT22;13914;48.178;11.716;2023-06-14T01:18:17;13.90;6.70
26164;DHT22;13914;48.178;11.716;2023-06-14T01:20:44;13.90;6.80
26164;DHT22;13914;48.178;11.716;2023-06-14T01:23:15;13.90;6.90
26164;DHT22;13914;48.178;11.716;2023-06-14T01:25:42;13.80;7.10
26164;DHT22;13914;48.178;11.716;2023-06-14T01:28:10;13.80;7.10
26164;DHT22;13914;48.178;11.716;2023-06-14T01:30:39;13.70;7.10
26164;DHT22;13914;48.178;11.716;2023-06-14T01:33:14;13.70;7.30
26164;DHT22;13914;48.178;11.716;2023-06-14T01:35:49;13.70;7.10
26164;DHT22;13914;48.178;11.716;2023-06-14T01:38:17;13.60;7.10
26164;DHT22;13914;48.178;11.716;2023-06-14T01:40:46;13.60;7.30
26164;DHT22;13914;48.178;11.716;2023-06-14T01:43:14;13.50;7.10
26164;DHT22;13914;48.178;11.716;2023-06-14T01:45:42;13.50;7.50
26164;DHT22;13914;48.178;11.716;2023-06-14T01:48:09;13.40;7.20
26164;DHT22;13914;48.178;11.716;2023-06-14T01:50:35;13.40;7.50
26164;DHT22;13914;48.178;11.716;2023-06-14T01:53:01;13.40;7.60
26164;DHT22;13914;48.178;11.716;2023-06-14T01:55:27;13.40;7.40
26164;DHT22;13914;48.178;11.716;2023-06-14T01:57:53;13.30;7.50
26164;DHT22;13914;48.178;11.716;2023-06-14T02:00:20;13.30;7.80
26164;DHT22;13914;48.178;11.716;2023-06-14T02:02:47;13.30;7.60
26164;DHT22;13914;48.178;11.716;2023-06-14T02:05:13;13.20;7.90
26164;DHT22;13914;48.178;11.716;2023-06-14T02:07:39;13.20;8.00
26164;DHT22;13914;48.178;11.716;2023-06-14T02:10:05;13.20;8.00
26164;DHT22;13914;48.178;11.716;2023-06-14T02:12:31;13.10;8.00
26164;DHT22;13914;48.178;11.716;2023-06-14T02:14:57;13.10;7.90
26164;DHT22;13914;48.178;11.716;2023-06-14T02:17:23;13.00;8.00
26164;DHT22;13914;48.178;11.716;2023-06-14T02:19:49;13.10;8.30
26164;DHT22;13914;48.178;11.716;2023-06-14T02:22:16;13.00;8.10
26164;DHT22;13914;48.178;11.716;2023-06-14T02:24:42;13.00;8.40
26164;DHT22;13914;48.178;11.716;2023-06-14T02:27:09;13.00;9.00
26164;DHT22;13914;48.178;11.716;2023-06-14T02:29:38;12.90;8.30
26164;DHT22;13914;48.178;11.716;2023-06-14T02:32:07;12.90;8.60
26164;DHT22;13914;48.178;11.716;2023-06-14T02:34:33;12.80;8.70
26164;DHT22;13914;48.178;11.716;2023-06-14T02:37:00;12.80;8.60
26164;DHT22;13914;48.178;11.716;2023-06-14T02:39:28;12.80;8.70
26164;DHT22;13914;48.178;11.716;2023-06-14T02:41:54;12.70;8.40
26164;DHT22;13914;48.178;11.716;2023-06-14T02:44:24;12.70;8.60
26164;DHT22;13914;48.178;11.716;2023-06-14T02:46:56;12.70;8.80
26164;DHT22;13914;48.178;11.716;2023-06-14T02:49:22;12.70;8.80
26164;DHT22;13914;48.178;11.716;2023-06-14T02:51:48;12.60;8.50
26164;DHT22;13914;48.178;11.716;2023-06-14T02:54:14;12.50;8.80
26164;DHT22;13914;48.178;11.716;2023-06-14T02:56:40;12.60;8.70
26164;DHT22;13914;48.178;11.716;2023-06-14T02:59:06;12.60;9.00
26164;DHT22;13914;48.178;11.716;2023-06-14T03:01:32;12.50;8.90
26164;DHT22;13914;48.178;11.716;2023-06-14T03:04:04;12.50;8.80
26164;DHT22;13914;48.178;11.716;2023-06-14T03:06:30;12.50;8.70
26164;DHT22;13914;48.178;11.716;2023-06-14T03:08:57;12.40;9.20
26164;DHT22;13914;48.178;11.716;2023-06-14T03:11:30;12.40;9.10
26164;DHT22;13914;48.178;11.716;2023-06-14T03:13:56;12.30;8.90
26164;DHT22;13914;48.178;11.716;2023-06-14T03:16:23;12.30;9.10
26164;DHT22;13914;48.178;11.716;2023-06-14T03:18:53;12.30;9.20
26164;DHT22;13914;48.178;11.716;2023-06-14T03:21:19;12.20;9.20
26164;DHT22;13914;48.178;11.716;2023-06-14T03:23:48;12.20;9.00
26164;DHT22;13914;48.178;11.716;2023-06-14T03:26:15;12.20;9.00
26164;DHT22;13914;48.178;11.716;2023-06-14T03:28:46;12.20;9.40
26164;DHT22;13914;48.178;11.716;2023-06-14T03:31:15;12.10;9.10
26164;DHT22;13914;48.178;11.716;2023-06-14T03:33:41;12.10;9.40
26164;DHT22;13914;48.178;11.716;2023-06-14T03:36:07;12.00;9.10
26164;DHT22;13914;48.178;11.716;2023-06-14T03:38:33;12.00;9.40
26164;DHT22;13914;48.178;11.716;2023-06-14T03:40:59;12.00;9.40
26164;DHT22;13914;48.178;11.716;2023-06-14T03:43:25;12.00;9.60
26164;DHT22;13914;48.178;11.716;2023-06-14T03:45:51;12.00;9.20
26164;DHT22;13914;48.178;11.716;2023-06-14T03:48:17;12.00;9.50
26164;DHT22;13914;48.178;11.716;2023-06-14T03:50:43;11.90;9.60
26164;DHT22;13914;48.178;11.716;2023-06-14T03:53:10;11.90;9.60
26164;DHT22;13914;48.178;11.716;2023-06-14T03:55:37;11.80;9.60
26164;DHT22;13914;48.178;11.716;2023-06-14T03:58:03;11.80;9.90
26164;DHT22;13914;48.178;11.716;2023-06-14T04:00:29;11.80;9.40
26164;DHT22;13914;48.178;11.716;2023-06-14T04:02:55;11.70;9.40
26164;DHT22;13914;48.178;11.716;2023-06-14T04:05:22;11.80;9.60
26164;DHT22;13914;48.178;11.716;2023-06-14T04:07:52;11.80;9.60
26164;DHT22;13914;48.178;11.716;2023-06-14T04:10:21;11.70;9.50
26164;DHT22;13914;48.178;11.716;2023-06-14T04:12:47;11.70;9.70
26164;DHT22;13914;48.178;11.716;2023-06-14T04:15:12;11.70;10.00
26164;DHT22;13914;48.178;11.716;2023-06-14T04:17:39;11.70;9.50
26164;DHT22;13914;48.178;11.716;2023-06-14T04:20:05;11.70;9.50
26164;DHT22;13914;48.178;11.716;2023-06-14T04:22:35;11.70;9.40
26164;DHT22;13914;48.178;11.716;2023-06-14T04:25:02;11.60;9.40
26164;DHT22;13914;48.178;11.716;2023-06-14T04:27:28;11.60;9.40
26164;DHT22;13914;48.178;11.716;2023-06-14T04:29:56;11.60;9.40
26164;DHT22;13914;48.178;11.716;2023-06-14T04:32:26;11.60;9.40
26164;DHT22;13914;48.178;11.716;2023-06-14T04:35:01;11.60;9.40
26164;DHT22;13914;48.178;11.716;2023-06-14T04:37:30;11.60;9.40
26164;DHT22;13914;48.178;11.716;2023-06-14T04:39:56;11.60;9.40
26164;DHT22;13914;48.178;11.716;2023-06-14T04:42:23;11.60;9.10
26164;DHT22;13914;48.178;11.716;2023-06-14T04:44:51;11.60;9.20
26164;DHT22;13914;48.178;11.716;2023-06-14T04:47:20;11.60;9.30
26164;DHT22;13914;48.178;11.716;2023-06-14T04:49:47;11.50;9.20
26164;DHT22;13914;48.178;11.716;2023-06-14T04:52:13;11.50;9.20
26164;DHT22;13914;48.178;11.716;2023-06-14T04:54:39;11.50;9.20
26164;DHT22;13914;48.178;11.716;2023-06-14T04:57:09;11.50;9.70
26164;DHT22;13914;48.178;11.716;2023-06-14T04:59:41;11.50;9.50
26164;DHT22;13914;48.178;11.716;2023-06-14T05:02:10;11.50;9.70
26164;DHT22;13914;48.178;11.716;2023-06-14T05:04:38;11.50;9.90
26164;DHT22;13914;48.178;11.716;2023-06-14T05:07:09;11.50;10.80
26164;DHT22;13914;48.178;11.716;2023-06-14T05:09:39;11.60;9.80
26164;DHT22;13914;48.178;11.716;2023-06-14T05:12:06;11.60;11.10
26164;DHT22;13914;48.178;11.716;2023-06-14T05:14:35;11.60;11.50
26164;DHT22;13914;48.178;11.716;2023-06-14T05:17:02;11.60;11.30
26164;DHT22;13914;48.178;11.716;2023-06-14T05:19:29;11.70;11.80
26164;DHT22;13914;48.178;11.716;2023-06-14T05:21:55;11.70;11.70
26164;DHT22;13914;48.178;11.716;2023-06-14T05:24:21;11.70;11.30
26164;DHT22;13914;48.178;11.716;2023-06-14T05:26:49;11.70;11.00
26164;DHT22;13914;48.178;11.716;2023-06-14T05:29:14;11.70;11.10
26164;DHT22;13914;48.178;11.716;2023-06-14T05:31:40;11.80;11.80
26164;DHT22;13914;48.178;11.716;2023-06-14T05:34:06;11.90;10.90
26164;DHT22;13914;48.178;11.716;2023-06-14T05:36:32;11.90;11.00
26164;DHT22;13914;48.178;11.716;2023-06-14T05:38:57;11.90;10.80
26164;DHT22;13914;48.178;11.716;2023-06-14T05:41:28;11.90;10.30
26164;DHT22;13914;48.178;11.716;2023-06-14T05:43:55;12.00;10.00
26164;DHT22;13914;48.178;11.716;2023-06-14T05:46:21;12.00;10.30
26164;DHT22;13914;48.178;11.716;2023-06-14T05:48:50;12.00;10.00
26164;DHT22;13914;48.178;11.716;2023-06-14T05:51:16;12.10;9.80
26164;DHT22;13914;48.178;11.716;2023-06-14T05:53:48;12.10;9.60
26164;DHT22;13914;48.178;11.716;2023-06-14T05:56:15;12.20;10.40
26164;DHT22;13914;48.178;11.716;2023-06-14T05:58:41;12.30;10.00
26164;DHT22;13914;48.178;11.716;2023-06-14T06:01:06;12.30;10.40
26164;DHT22;13914;48.178;11.716;2023-06-14T06:03:33;12.30;10.80
26164;DHT22;13914;48.178;11.716;2023-06-14T06:05:59;12.40;10.70
26164;DHT22;13914;48.178;11.716;2023-06-14T06:08:26;12.50;10.60
26164;DHT22;13914;48.178;11.716;2023-06-14T06:10:52;12.50;10.80
26164;DHT22;13914;48.178;11.716;2023-06-14T06:13:19;12.50;10.00
26164;DHT22;13914;48.178;11.716;2023-06-14T06:15:44;12.60;10.30
26164;DHT22;13914;48.178;11.716;2023-06-14T06:18:11;12.60;10.30
26164;DHT22;13914;48.178;11.716;2023-06-14T06:20:37;12.70;11.20
26164;DHT22;13914;48.178;11.716;2023-06-14T06:23:02;12.80;10.90
26164;DHT22;13914;48.178;11.716;2023-06-14T06:25:28;12.80;10.10
26164;DHT22;13914;48.178;11.716;2023-06-14T06:27:55;12.90;10.40
26164;DHT22;13914;48.178;11.716;2023-06-14T06:30:24;12.90;10.30
26164;DHT22;13914;48.178;11.716;2023-06-14T06:32:50;13.00;10.10
26164;DHT22;13914;48.178;11.716;2023-06-14T06:35:17;13.10;10.20
26164;DHT22;13914;48.178;11.716;2023-06-14T06:37:43;13.10;10.20
26164;DHT22;13914;48.178;11.716;2023-06-14T06:40:09;13.20;10.10
26164;DHT22;13914;48.178;11.716;2023-06-14T06:42:35;13.30;10.00
26164;DHT22;13914;48.178;11.716;2023-06-14T06:45:01;13.40;10.10
26164;DHT22;13914;48.178;11.716;2023-06-14T06:47:27;13.60;10.50
26164;DHT22;13914;48.178;11.716;2023-06-14T06:49:53;13.80;10.40
26164;DHT22;13914;48.178;11.716;2023-06-14T06:52:19;13.90;9.80
26164;DHT22;13914;48.178;11.716;2023-06-14T06:54:45;14.00;9.70
26164;DHT22;13914;48.178;11.716;2023-06-14T06:57:10;14.20;10.00
26164;DHT22;13914;48.178;11.716;2023-06-14T06:59:36;14.30;9.80
26164;DHT22;13914;48.178;11.716;2023-06-14T07:02:03;14.50;9.60
26164;DHT22;13914;48.178;11.716;2023-06-14T07:04:29;14.60;9.50
26164;DHT22;13914;48.178;11.716;2023-06-14T07:06:55;14.70;9.40
26164;DHT22;13914;48.178;11.716;2023-06-14T07:09:21;14.90;9.70
26164;DHT22;13914;48.178;11.716;2023-06-14T07:11:47;15.10;9.90
26164;DHT22;13914;48.178;11.716;2023-06-14T07:14:13;15.20;9.50
26164;DHT22;13914;48.178;11.716;2023-06-14T07:16:39;15.40;9.30
26164;DHT22;13914;48.178;11.716;2023-06-14T07:19:06;15.60;9.70
26164;DHT22;13914;48.178;11.716;2023-06-14T07:21:32;15.80;9.70
26164;DHT22;13914;48.178;11.716;2023-06-14T07:23:58;15.90;9.30
26164;DHT22;13914;48.178;11.716;2023-06-14T07:26:24;16.10;9.40
26164;DHT22;13914;48.178;11.716;2023-06-14T07:28:50;16.30;9.30
26164;DHT22;13914;48.178;11.716;2023-06-14T07:31:16;16.40;9.30
26164;DHT22;13914;48.178;11.716;2023-06-14T07:33:43;16.60;9.30
26164;DHT22;13914;48.178;11.716;2023-06-14T07:36:09;16.80;9.30
26164;DHT22;13914;48.178;11.716;2023-06-14T07:38:35;17.00;9.20
26164;DHT22;13914;48.178;11.716;2023-06-14T07:41:02;17.30;9.00
26164;DHT22;13914;48.178;11.716;2023-06-14T07:43:28;17.40;8.10
26164;DHT22;13914;48.178;11.716;2023-06-14T07:45:54;17.70;8.10
26164;DHT22;13914;48.178;11.716;2023-06-14T07:48:20;17.90;8.10
26164;DHT22;13914;48.178;11.716;2023-06-14T07:50:46;18.00;7.80
26164;DHT22;13914;48.178;11.716;2023-06-14T07:53:12;18.20;7.50
26164;DHT22;13914;48.178;11.716;2023-06-14T07:55:37;18.40;7.40
26164;DHT22;13914;48.178;11.716;2023-06-14T07:58:08;18.60;6.40
26164;DHT22;13914;48.178;11.716;2023-06-14T08:00:34;18.80;7.40
26164;DHT22;13914;48.178;11.716;2023-06-14T08:03:00;18.90;7.20
26164;DHT22;13914;48.178;11.716;2023-06-14T08:05:27;19.10;7.70
26164;DHT22;13914;48.178;11.716;2023-06-14T08:07:55;19.20;7.20
26164;DHT22;13914;48.178;11.716;2023-06-14T08:10:21;19.40;7.20
26164;DHT22;13914;48.178;11.716;2023-06-14T08:12:47;19.60;6.70
26164;DHT22;13914;48.178;11.716;2023-06-14T08:15:15;19.70;5.00
26164;DHT22;13914;48.178;11.716;2023-06-14T08:17:45;19.80;4.30
26164;DHT22;13914;48.178;11.716;2023-06-14T08:20:12;19.90;4.10
26164;DHT22;13914;48.178;11.716;2023-06-14T08:22:39;20.00;3.50
26164;DHT22;13914;48.178;11.716;2023-06-14T08:25:08;20.20;5.30
26164;DHT22;13914;48.178;11.716;2023-06-14T08:27:34;20.30;4.10
26164;DHT22;13914;48.178;11.716;2023-06-14T08:30:00;20.50;2.20
26164;DHT22;13914;48.178;11.716;2023-06-14T08:32:26;20.60;3.20
26164;DHT22;13914;48.178;11.716;2023-06-14T08:34:52;20.70;4.60
26164;DHT22;13914;48.178;11.716;2023-06-14T08:37:18;20.90;4.40
26164;DHT22;13914;48.178;11.716;2023-06-14T08:39:44;21.00;3.70
26164;DHT22;13914;48.178;11.716;2023-06-14T08:42:10;21.10;2.20
26164;DHT22;13914;48.178;11.716;2023-06-14T08:44:37;21.30;1.80
26164;DHT22;13914;48.178;11.716;2023-06-14T08:47:05;21.40;3.60
26164;DHT22;13914;48.178;11.716;2023-06-14T08:49:31;21.60;4.00
26164;DHT22;13914;48.178;11.716;2023-06-14T08:51:58;21.70;3.80
26164;DHT22;13914;48.178;11.716;2023-06-14T08:54:27;21.90;3.70
26164;DHT22;13914;48.178;11.716;2023-06-14T08:56:58;22.10;2.90
26164;DHT22;13914;48.178;11.716;2023-06-14T08:59:27;22.20;2.70
26164;DHT22;13914;48.178;11.716;2023-06-14T09:01:54;22.30;3.70
26164;DHT22;13914;48.178;11.716;2023-06-14T09:04:20;22.50;3.40
26164;DHT22;13914;48.178;11.716;2023-06-14T09:06:47;22.50;1.00
26164;DHT22;13914;48.178;11.716;2023-06-14T09:09:20;22.50;1.00
26164;DHT22;13914;48.178;11.716;2023-06-14T09:11:51;22.60;1.10
26164;DHT22;13914;48.178;11.716;2023-06-14T09:14:23;22.70;2.00
26164;DHT22;13914;48.178;11.716;2023-06-14T09:16:53;22.90;1.20
26164;DHT22;13914;48.178;11.716;2023-06-14T09:19:25;23.10;1.00
26164;DHT22;13914;48.178;11.716;2023-06-14T09:21:52;23.10;1.00
26164;DHT22;13914;48.178;11.716;2023-06-14T09:24:19;23.20;1.00
26164;DHT22;13914;48.178;11.716;2023-06-14T09:26:48;23.20;1.00
26164;DHT22;13914;48.178;11.716;2023-06-14T09:29:16;23.10;1.00
26164;DHT22;13914;48.178;11.716;2023-06-14T09:31:43;23.20;1.00
26164;DHT22;13914;48.178;11.716;2023-06-14T09:34:11;23.20;1.00
26164;DHT22;13914;48.178;11.716;2023-06-14T09:36:40;23.30;1.00
26164;DHT22;13914;48.178;11.716;2023-06-14T09:39:08;23.40;1.00
26164;DHT22;13914;48.178;11.716;2023-06-14T09:41:38;23.50;1.00
26164;DHT22;13914;48.178;11.716;2023-06-14T09:44:07;23.50;1.00
26164;DHT22;13914;48.178;11.716;2023-06-14T09:46:35;23.60;1.00
26164;DHT22;13914;48.178;11.716;2023-06-14T09:49:02;23.60;1.00
26164;DHT22;13914;48.178;11.716;2023-06-14T09:51:29;23.80;1.00
26164;DHT22;13914;48.178;11.716;2023-06-14T09:54:02;24.00;1.00
26164;DHT22;13914;48.178;11.716;2023-06-14T09:56:41;24.20;1.00
26164;DHT22;13914;48.178;11.716;2023-06-14T09:59:13;24.30;1.00
26164;DHT22;13914;48.178;11.716;2023-06-14T10:01:43;24.40;1.00
26164;DHT22;13914;48.178;11.716;2023-06-14T10:04:10;24.30;1.00
26164;DHT22;13914;48.178;11.716;2023-06-14T10:06:40;24.30;1.00
26164;DHT22;13914;48.178;11.716;2023-06-14T10:09:10;24.40;1.00
26164;DHT22;13914;48.178;11.716;2023-06-14T10:11:36;24.50;1.00
26164;DHT22;13914;48.178;11.716;2023-06-14T10:14:07;24.50;1.00
26164;DHT22;13914;48.178;11.716;2023-06-14T10:16:42;24.60;1.00
26164;DHT22;13914;48.178;11.716;2023-06-14T10:19:23;24.50;1.00
26164;DHT22;13914;48.178;11.716;2023-06-14T10:22:04;24.50;1.00
26164;DHT22;13914;48.178;11.716;2023-06-14T10:24:41;24.30;1.00
26164;DHT22;13914;48.178;11.716;2023-06-14T10:27:08;24.10;1.00
26164;DHT22;13914;48.178;11.716;2023-06-14T10:32:27;24.20;1.00
26164;DHT22;13914;48.178;11.716;2023-06-14T10:35:06;24.40;1.00
26164;DHT22;13914;48.178;11.716;2023-06-14T10:37:33;24.40;1.00
26164;DHT22;13914;48.178;11.716;2023-06-14T10:39:59;24.30;1.00
26164;DHT22;13914;48.178;11.716;2023-06-14T10:42:31;24.30;1.00
26164;DHT22;13914;48.178;11.716;2023-06-14T10:44:58;24.50;1.00
26164;DHT22;13914;48.178;11.716;2023-06-14T10:47:29;24.40;1.00
26164;DHT22;13914;48.178;11.716;2023-06-14T10:50:09;24.50;1.00
26164;DHT22;13914;48.178;11.716;2023-06-14T10:52:40;24.50;1.00
26164;DHT22;13914;48.178;11.716;2023-06-14T10:55:09;24.50;1.00
26164;DHT22;13914;48.178;11.716;2023-06-14T10:57:46;24.50;1.00
26164;DHT22;13914;48.178;11.716;2023-06-14T11:00:17;24.50;1.00
26164;DHT22;13914;48.178;11.716;2023-06-14T11:05:58;24.70;1.00
26164;DHT22;13914;48.178;11.716;2023-06-14T11:11:25;24.90;1.00
26164;DHT22;13914;48.178;11.716;2023-06-14T11:13:57;25.00;1.00
26164;DHT22;13914;48.178;11.716;2023-06-14T11:16:26;24.90;1.00
26164;DHT22;13914;48.178;11.716;2023-06-14T11:18:55;24.90;1.00
26164;DHT22;13914;48.178;11.716;2023-06-14T11:21:21;25.00;1.00
26164;DHT22;13914;48.178;11.716;2023-06-14T11:23:53;25.10;1.00
26164;DHT22;13914;48.178;11.716;2023-06-14T11:26:31;25.10;1.00
26164;DHT22;13914;48.178;11.716;2023-06-14T11:28:59;25.10;1.00
26164;DHT22;13914;48.178;11.716;2023-06-14T11:31:29;25.20;1.00
26164;DHT22;13914;48.178;11.716;2023-06-14T11:33:59;25.30;1.00
26164;DHT22;13914;48.178;11.716;2023-06-14T11:36:29;25.20;1.00
26164;DHT22;13914;48.178;11.716;2023-06-14T11:39:00;25.00;1.00
26164;DHT22;13914;48.178;11.716;2023-06-14T11:41:46;25.10;1.00
26164;DHT22;13914;48.178;11.716;2023-06-14T11:44:12;25.10;1.00
26164;DHT22;13914;48.178;11.716;2023-06-14T11:46:38;25.20;1.00
26164;DHT22;13914;48.178;11.716;2023-06-14T11:49:04;25.10;1.00
26164;DHT22;13914;48.178;11.716;2023-06-14T11:51:33;25.20;1.00
26164;DHT22;13914;48.178;11.716;2023-06-14T11:54:04;25.10;1.00
26164;DHT22;13914;48.178;11.716;2023-06-14T11:56:33;25.20;1.00
26164;DHT22;13914;48.178;11.716;2023-06-14T11:58:59;25.10;1.00
26164;DHT22;13914;48.178;11.716;2023-06-14T12:01:25;25.00;1.00
26164;DHT22;13914;48.178;11.716;2023-06-14T12:03:53;25.10;1.00
26164;DHT22;13914;48.178;11.716;2023-06-14T12:06:30;25.20;1.00
26164;DHT22;13914;48.178;11.716;2023-06-14T12:09:04;25.30;1.00
26164;DHT22;13914;48.178;11.716;2023-06-14T12:11:33;25.50;1.00
26164;DHT22;13914;48.178;11.716;2023-06-14T12:14:00;25.60;1.00
26164;DHT22;13914;48.178;11.716;2023-06-14T12:16:34;25.80;1.00
26164;DHT22;13914;48.178;11.716;2023-06-14T12:19:15;25.80;1.00
26164;DHT22;13914;48.178;11.716;2023-06-14T12:21:43;25.80;1.00
26164;DHT22;13914;48.178;11.716;2023-06-14T12:24:13;25.70;1.00
26164;DHT22;13914;48.178;11.716;2023-06-14T12:26:40;25.60;1.00
26164;DHT22;13914;48.178;11.716;2023-06-14T12:29:07;25.50;1.00
26164;DHT22;13914;48.178;11.716;2023-06-14T12:31:33;25.50;1.00
26164;DHT22;13914;48.178;11.716;2023-06-14T12:33:59;25.40;1.00
26164;DHT22;13914;48.178;11.716;2023-06-14T12:36:25;25.50;1.00
26164;DHT22;13914;48.178;11.716;2023-06-14T12:38:51;25.60;1.00
26164;DHT22;13914;48.178;11.716;2023-06-14T12:41:20;25.70;1.00
26164;DHT22;13914;48.178;11.716;2023-06-14T12:43:48;25.70;1.00
26164;DHT22;13914;48.178;11.716;2023-06-14T12:46:14;25.60;1.00
26164;DHT22;13914;48.178;11.716;2023-06-14T12:48:40;25.70;1.00
26164;DHT22;13914;48.178;11.716;2023-06-14T12:51:07;25.60;1.00
26164;DHT22;13914;48.178;11.716;2023-06-14T12:53:33;25.60;1.00
26164;DHT22;13914;48.178;11.716;2023-06-14T12:55:58;25.60;1.00
26164;DHT22;13914;48.178;11.716;2023-06-14T12:58:25;25.50;1.00
26164;DHT22;13914;48.178;11.716;2023-06-14T13:00:50;25.30;1.00
26164;DHT22;13914;48.178;11.716;2023-06-14T13:03:16;25.20;1.00
26164;DHT22;13914;48.178;11.716;2023-06-14T13:05:42;25.20;1.00
26164;DHT22;13914;48.178;11.716;2023-06-14T13:08:08;25.10;1.00
26164;DHT22;13914;48.178;11.716;2023-06-14T13:10:34;25.00;1.00
26164;DHT22;13914;48.178;11.716;2023-06-14T13:13:00;24.90;1.00
26164;DHT22;13914;48.178;11.716;2023-06-14T13:15:26;24.90;1.00
26164;DHT22;13914;48.178;11.716;2023-06-14T13:17:52;24.80;1.00
26164;DHT22;13914;48.178;11.716;2023-06-14T13:20:18;24.80;1.00
26164;DHT22;13914;48.178;11.716;2023-06-14T13:22:44;24.90;1.00
26164;DHT22;13914;48.178;11.716;2023-06-14T13:25:10;24.90;1.00
26164;DHT22;13914;48.178;11.716;2023-06-14T13:27:36;24.70;1.00
26164;DHT22;13914;48.178;11.716;2023-06-14T13:30:02;24.70;1.00
26164;DHT22;13914;48.178;11.716;2023-06-14T13:32:30;24.70;1.00
26164;DHT22;13914;48.178;11.716;2023-06-14T13:34:56;24.70;1.00
26164;DHT22;13914;48.178;11.716;2023-06-14T13:37:23;24.70;1.00
26164;DHT22;13914;48.178;11.716;2023-06-14T13:39:49;24.70;1.00
26164;DHT22;13914;48.178;11.716;2023-06-14T13:42:15;24.60;1.00
26164;DHT22;13914;48.178;11.716;2023-06-14T13:44:41;24.60;1.00
26164;DHT22;13914;48.178;11.716;2023-06-14T13:47:06;24.60;1.00
26164;DHT22;13914;48.178;11.716;2023-06-14T13:49:32;24.60;1.00
26164;DHT22;13914;48.178;11.716;2023-06-14T13:52:00;24.50;1.00
26164;DHT22;13914;48.178;11.716;2023-06-14T13:54:27;24.50;1.00
26164;DHT22;13914;48.178;11.716;2023-06-14T13:56:53;24.50;1.00
26164;DHT22;13914;48.178;11.716;2023-06-14T13:59:19;24.60;1.00
26164;DHT22;13914;48.178;11.716;2023-06-14T14:01:45;24.60;1.00
26164;DHT22;13914;48.178;11.716;2023-06-14T14:04:10;24.60;1.00
26164;DHT22;13914;48.178;11.716;2023-06-14T14:06:36;24.60;1.00
26164;DHT22;13914;48.178;11.716;2023-06-14T14:09:03;24.60;1.00
26164;DHT22;13914;48.178;11.716;2023-06-14T14:11:28;24.60;1.00
26164;DHT22;13914;48.178;11.716;2023-06-14T14:13:58;24.60;1.00
26164;DHT22;13914;48.178;11.716;2023-06-14T14:16:24;24.70;1.00
26164;DHT22;13914;48.178;11.716;2023-06-14T14:18:51;24.60;1.00
26164;DHT22;13914;48.178;11.716;2023-06-14T14:21:16;24.70;1.00
26164;DHT22;13914;48.178;11.716;2023-06-14T14:23:42;24.70;1.00
26164;DHT22;13914;48.178;11.716;2023-06-14T14:26:09;24.60;1.00
26164;DHT22;13914;48.178;11.716;2023-06-14T14:28:35;24.60;1.00
26164;DHT22;13914;48.178;11.716;2023-06-14T14:31:01;24.70;1.00
26164;DHT22;13914;48.178;11.716;2023-06-14T14:33:27;24.50;1.00
26164;DHT22;13914;48.178;11.716;2023-06-14T14:35:53;24.50;1.00
26164;DHT22;13914;48.178;11.716;2023-06-14T14:38:18;24.60;1.00
26164;DHT22;13914;48.178;11.716;2023-06-14T14:40:44;24.70;1.00
26164;DHT22;13914;48.178;11.716;2023-06-14T14:43:10;24.80;1.00
26164;DHT22;13914;48.178;11.716;2023-06-14T14:45:36;24.80;1.00
26164;DHT22;13914;48.178;11.716;2023-06-14T14:48:02;24.80;1.00
26164;DHT22;13914;48.178;11.716;2023-06-14T14:50:28;24.80;1.00
26164;DHT22;13914;48.178;11.716;2023-06-14T14:52:55;24.60;1.00
26164;DHT22;13914;48.178;11.716;2023-06-14T14:55:21;24.50;1.00
26164;DHT22;13914;48.178;11.716;2023-06-14T14:57:47;24.50;1.00
26164;DHT22;13914;48.178;11.716;2023-06-14T15:00:13;24.40;1.00
26164;DHT22;13914;48.178;11.716;2023-06-14T15:02:40;24.40;1.00
26164;DHT22;13914;48.178;11.716;2023-06-14T15:05:06;24.50;1.00
26164;DHT22;13914;48.178;11.716;2023-06-14T15:07:32;24.50;1.00
26164;DHT22;13914;48.178;11.716;2023-06-14T15:09:59;24.50;1.00
26164;DHT22;13914;48.178;11.716;2023-06-14T15:12:25;24.40;1.00
26164;DHT22;13914;48.178;11.716;2023-06-14T15:14:52;24.30;1.00
26164;DHT22;13914;48.178;11.716;2023-06-14T15:17:21;24.20;1.00
26164;DHT22;13914;48.178;11.716;2023-06-14T15:19:49;24.20;1.00
26164;DHT22;13914;48.178;11.716;2023-06-14T15:22:15;24.20;1.00
26164;DHT22;13914;48.178;11.716;2023-06-14T15:24:42;24.20;1.00
26164;DHT22;13914;48.178;11.716;2023-06-14T15:27:08;24.10;1.00
26164;DHT22;13914;48.178;11.716;2023-06-14T15:29:34;24.10;1.00
26164;DHT22;13914;48.178;11.716;2023-06-14T15:32:01;24.10;1.00
26164;DHT22;13914;48.178;11.716;2023-06-14T15:34:26;24.00;1.00
26164;DHT22;13914;48.178;11.716;2023-06-14T15:36:52;23.90;1.00
26164;DHT22;13914;48.178;11.716;2023-06-14T15:39:18;23.90;1.00
26164;DHT22;13914;48.178;11.716;2023-06-14T15:41:44;23.90;1.00
26164;DHT22;13914;48.178;11.716;2023-06-14T15:44:10;23.90;1.00